Time;durP1;ratioP1;P1;durP2;ratioP2;P2;SDS_P1;SDS_P2;PMS_P1;PMS_P2;Temp;Humidity;BMP_temperature;BMP_pressure;BME280_temperature;BME280_humidity;BME280_pressure;Samples;Min_cycle;Max_cycle;Signal;HPM_P1;HPM_P2
2021/12/16 00:34:42;;;;;;;55.73;25.57;;;;;;;6.29;100.00;101551.16;21073042;28;20323;-60
2021/12/16 00:55:23;;;;;;;56.63;26.23;;;;;;;6.32;100.00;101535.19;21045384;28;20226;-61
2021/12/16 01:47:17;;;;;;;52.03;26.57;;;;;;;6.30;100.00;101500.75;21065116;28;20220;-66
2021/12/16 01:57:29;;;;;;;50.10;24.77;;;;;;;6.40;100.00;101501.38;20988005;28;20294;-66
2021/12/16 02:07:52;;;;;;;54.93;27.77;;;;;;;6.37;100.00;101510.28;21001042;28;20232;-64
2021/12/16 02:28:37;;;;;;;50.63;26.93;;;;;;;6.32;100.00;101521.91;21076718;28;20252;-60
2021/12/16 02:38:43;;;;;;;54.13;27.70;;;;;;;6.34;100.00;101517.44;21081217;28;20271;-59
2021/12/16 02:48:47;;;;;;;49.20;25.87;;;;;;;6.36;100.00;101526.25;21069424;28;20230;-59
2021/12/16 02:58:56;;;;;;;52.87;27.80;;;;;;;6.36;100.00;101526.25;21066400;28;20223;-58
2021/12/16 03:09:03;;;;;;;56.00;29.77;;;;;;;6.35;100.00;101527.16;21022037;28;20247;-58
2021/12/16 03:19:15;;;;;;;57.87;32.00;;;;;;;6.36;100.00;101531.53;21067954;28;20230;-61
2021/12/16 03:29:40;;;;;;;56.23;30.77;;;;;;;6.38;100.00;101524.41;21076883;28;20311;-57
2021/12/16 03:40:16;;;;;;;55.50;30.67;;;;;;;6.39;100.00;101526.16;20898349;28;20363;-58
2021/12/16 03:50:21;;;;;;;50.53;29.50;;;;;;;6.37;100.00;101515.59;20892581;28;20244;-60
2021/12/16 04:00:31;;;;;;;46.27;28.10;;;;;;;6.39;100.00;101515.56;20908644;28;20230;-64
2021/12/16 04:10:43;;;;;;;47.97;29.57;;;;;;;6.37;100.00;101496.16;20907336;28;20252;-62
2021/12/16 04:20:50;;;;;;;46.70;29.70;;;;;;;6.37;100.00;101496.16;20905222;28;20224;-61
2021/12/16 04:30:56;;;;;;;47.73;28.93;;;;;;;6.39;100.00;101486.38;20929346;28;20304;-63
2021/12/16 04:41:01;;;;;;;45.63;29.07;;;;;;;6.32;100.00;101471.56;20906064;28;20286;-64
2021/12/16 04:51:06;;;;;;;42.20;27.80;;;;;;;6.29;100.00;101482.22;20903825;28;20657;-61
2021/12/16 05:01:11;;;;;;;40.27;27.10;;;;;;;6.17;100.00;101471.97;20904387;28;20233;-58
2021/12/16 05:11:18;;;;;;;46.37;29.73;;;;;;;6.16;100.00;101480.88;20983329;28;20225;-58
2021/12/16 05:31:54;;;;;;;38.07;27.20;;;;;;;6.17;100.00;101477.28;20951085;28;20249;-58
2021/12/16 05:41:58;;;;;;;38.10;26.33;;;;;;;6.12;100.00;101480.94;20899120;28;20229;-58
2021/12/16 05:52:04;;;;;;;43.40;30.43;;;;;;;6.06;100.00;101472.28;20901858;28;20675;-59
2021/12/16 06:02:08;;;;;;;41.77;29.60;;;;;;;6.13;100.00;101481.81;20965924;28;20233;-64
2021/12/16 06:12:15;;;;;;;38.47;28.60;;;;;;;6.21;100.00;101473.63;20926971;28;20275;-65
2021/12/16 06:22:31;;;;;;;39.70;28.43;;;;;;;6.25;100.00;101477.94;20934310;28;20320;-62
2021/12/16 06:32:35;;;;;;;42.17;29.87;;;;;;;6.31;100.00;101497.19;20939722;28;20624;-65
2021/12/16 06:42:41;;;;;;;40.47;30.50;;;;;;;6.35;100.00;101503.28;20963743;28;20226;-65
2021/12/16 06:52:48;;;;;;;39.50;29.50;;;;;;;6.35;100.00;101500.63;20995017;28;20571;-64
2021/12/16 07:03:00;;;;;;;39.83;30.53;;;;;;;6.35;100.00;101501.50;20995959;28;20312;-64
2021/12/16 07:13:15;;;;;;;36.83;27.53;;;;;;;6.35;100.00;101482.06;20979730;28;20230;-64
2021/12/16 07:23:19;;;;;;;40.10;28.70;;;;;;;6.38;100.00;101477.56;20995413;28;20236;-65
2021/12/16 07:33:23;;;;;;;35.80;27.97;;;;;;;6.47;100.00;101476.41;20993092;28;20225;-63
2021/12/16 07:43:41;;;;;;;42.13;30.43;;;;;;;6.49;100.00;101474.59;20993246;28;20241;-57
2021/12/16 07:53:45;;;;;;;39.50;28.30;;;;;;;6.49;100.00;101464.88;20991420;28;20709;-58
2021/12/16 08:03:49;;;;;;;48.23;32.10;;;;;;;6.44;100.00;101471.19;20973805;28;20223;-60
2021/12/16 08:13:54;;;;;;;47.03;29.77;;;;;;;6.48;100.00;101483.47;20991017;28;20259;-58
2021/12/16 08:24:01;;;;;;;54.67;33.07;;;;;;;6.45;100.00;101472.94;20989768;28;20592;-58
2021/12/16 08:34:05;;;;;;;63.57;35.43;;;;;;;6.44;100.00;101503.88;21064202;28;20350;-58
2021/12/16 08:44:08;;;;;;;62.67;36.13;;;;;;;6.45;100.00;101505.63;21071544;28;20314;-57
2021/12/16 08:54:12;;;;;;;58.90;34.80;;;;;;;6.46;100.00;101512.69;21054606;28;20232;-60
2021/12/16 09:04:19;;;;;;;57.33;32.73;;;;;;;6.56;100.00;101505.31;21069845;28;20255;-58
2021/12/16 09:14:23;;;;;;;53.53;28.50;;;;;;;6.63;100.00;101493.63;21069551;28;20234;-58
2021/12/16 09:24:26;;;;;;;62.97;33.13;;;;;;;6.62;100.00;101491.91;21069078;28;20255;-58
2021/12/16 09:34:30;;;;;;;48.97;27.30;;;;;;;6.68;100.00;101480.22;21068143;28;20235;-58
2021/12/16 09:44:33;;;;;;;50.33;26.20;;;;;;;6.68;100.00;101491.69;21068983;28;20227;-58
2021/12/16 09:54:37;;;;;;;40.57;24.27;;;;;;;6.75;100.00;101482.66;21068743;28;20316;-63
2021/12/16 10:04:40;;;;;;;35.77;22.37;;;;;;;6.84;100.00;101503.59;21068292;28;20325;-64
2021/12/16 10:17:22;;;;;;;31.00;20.67;;;;;;;6.94;100.00;101479.44;21066790;28;20308;-67
2021/12/16 10:25:54;;;;;;;30.97;20.67;;;;;;;7.00;100.00;101481.91;21082948;28;20708;-59
2021/12/16 10:36:07;;;;;;;30.93;21.70;;;;;;;7.08;100.00;101448.91;21080451;28;20239;-59
2021/12/16 10:46:13;;;;;;;31.00;21.47;;;;;;;7.05;100.00;101474.66;21082301;28;20232;-63
2021/12/16 10:56:19;;;;;;;29.00;21.67;;;;;;;7.09;100.00;101473.66;21081687;28;20229;-65
2021/12/16 11:06:32;;;;;;;26.87;21.67;;;;;;;7.10;100.00;101478.94;21079896;28;20239;-65
2021/12/16 11:16:37;;;;;;;24.47;19.20;;;;;;;7.09;100.00;101455.09;21080345;28;20223;-64
2021/12/16 11:26:43;;;;;;;21.73;18.03;;;;;;;7.12;100.00;101444.38;21079389;28;20263;-65
2021/12/16 11:36:53;;;;;;;17.70;15.90;;;;;;;7.54;100.00;101458.88;21077956;28;20635;-64
2021/12/16 11:47:03;;;;;;;15.40;13.83;;;;;;;7.86;100.00;101454.25;21077795;28;20290;-64
2021/12/16 11:57:27;;;;;;;17.17;13.50;;;;;;;8.16;100.00;101449.66;20992357;28;20233;-65
2021/12/16 12:07:40;;;;;;;14.20;12.30;;;;;;;7.97;100.00;101447.63;20992643;28;20310;-65
2021/12/16 12:17:50;;;;;;;13.63;12.33;;;;;;;7.83;100.00;101454.38;20990437;28;20224;-64
2021/12/16 12:27:54;;;;;;;7.30;6.60;;;;;;;7.55;100.00;101443.81;20990657;28;20241;-64
2021/12/16 12:38:00;;;;;;;10.70;9.70;;;;;;;7.53;100.00;101450.97;20990020;28;20241;-65
2021/12/16 12:48:06;;;;;;;9.73;7.83;;;;;;;7.51;100.00;101427.09;21063371;28;20226;-62
2021/12/16 12:58:13;;;;;;;6.00;5.50;;;;;;;7.42;100.00;101410.63;21072429;28;20730;-59
2021/12/16 13:08:19;;;;;;;5.60;5.10;;;;;;;7.47;100.00;101452.06;21067425;28;20230;-60
2021/12/16 13:28:47;;;;;;;4.30;4.00;;;;;;;7.42;100.00;101446.03;21068629;28;20224;-60
2021/12/16 13:38:51;;;;;;;4.10;3.80;;;;;;;7.36;100.00;101454.19;21068363;28;20334;-59
2021/12/16 14:10:11;;;;;;;70.33;16.27;;;;;;;7.13;100.00;101456.69;20974837;28;20668;-59
2021/12/16 14:31:31;;;;;;;8.37;6.37;;;;;;;7.00;100.00;101524.38;20983830;28;20225;-58
2021/12/16 14:41:45;;;;;;;5.03;4.53;;;;;;;7.00;100.00;101530.56;21066467;28;20232;-58
2021/12/16 14:51:49;;;;;;;5.23;4.70;;;;;;;6.99;100.00;101535.91;21065365;28;20237;-59
2021/12/16 15:01:54;;;;;;;5.27;3.67;;;;;;;6.96;100.00;101515.63;21066178;28;20259;-58
2021/12/16 15:12:13;;;;;;;3.70;3.33;;;;;;;6.68;100.00;101507.63;21077294;28;20250;-60
2021/12/16 15:43:16;;;;;;;7.47;5.60;;;;;;;6.51;100.00;101504.59;20950537;28;20589;-61
2021/12/16 15:53:29;;;;;;;8.70;5.47;;;;;;;6.14;100.00;101545.38;20992313;28;20232;-64
2021/12/16 16:03:33;;;;;;;5.97;5.30;;;;;;;5.61;100.00;101548.47;20990454;28;20246;-62
2021/12/16 16:13:43;;;;;;;8.33;6.57;;;;;;;5.17;100.00;101555.69;20991000;28;20251;-63
2021/12/16 16:23:53;;;;;;;7.43;5.90;;;;;;;4.78;100.00;101561.81;20989672;28;20223;-63
2021/12/16 16:33:58;;;;;;;6.60;5.30;;;;;;;4.46;100.00;101565.97;20993918;28;20237;-62
2021/12/16 16:44:07;;;;;;;8.97;5.40;;;;;;;4.41;100.00;101583.69;21003222;28;20734;-62
2021/12/16 16:54:18;;;;;;;11.40;7.93;;;;;;;4.36;100.00;101585.53;20986652;28;20234;-66
2021/12/16 17:04:25;;;;;;;14.37;10.40;;;;;;;4.31;100.00;101582.13;20968432;28;20304;-62
2021/12/16 17:14:36;;;;;;;11.97;7.80;;;;;;;4.30;100.00;101581.25;20985286;28;20242;-60
2021/12/16 17:24:46;;;;;;;9.17;6.17;;;;;;;4.63;100.00;101602.63;20963222;28;20230;-61
2021/12/16 17:35:00;;;;;;;9.63;5.50;;;;;;;5.01;100.00;101613.34;20962937;28;20307;-60
2021/12/16 17:45:31;;;;;;;7.03;5.00;;;;;;;5.22;100.00;101596.13;20976923;28;20310;-61
2021/12/16 17:55:39;;;;;;;9.00;4.97;;;;;;;5.31;100.00;101592.41;20973386;28;20227;-60
2021/12/16 18:15:40;;;;;;;10.37;5.93;;;;;;;5.31;100.00;101569.44;21092064;27;20563;-60
2021/12/16 18:25:50;;;;;;;6.33;4.23;;;;;;;5.03;100.00;101566.56;21056844;28;20288;-62
2021/12/16 18:35:59;;;;;;;11.93;5.10;;;;;;;4.76;100.00;101563.59;21056626;28;20649;-61
2021/12/16 18:56:00;;;;;;;14.40;5.50;;;;;;;4.45;100.00;101595.94;21029859;27;20625;-59
2021/12/16 19:06:04;;;;;;;21.03;6.27;;;;;;;4.59;100.00;101603.59;21008753;27;20728;-63
2021/12/16 19:16:09;;;;;;;14.37;5.83;;;;;;;4.55;100.00;101597.50;20969391;27;20218;-59
2021/12/16 19:56:09;;;;;;;21.23;6.60;;;;;;;4.26;100.00;101629.75;20853681;27;21030;-59
2021/12/16 20:26:32;;;;;;;12.77;6.67;;;;;;;4.21;100.00;101650.09;21114524;27;20587;-57
2021/12/16 20:46:35;;;;;;;20.40;7.53;;;;;;;3.96;100.00;101660.19;21010637;27;20646;-57
2021/12/16 20:56:39;;;;;;;15.50;7.23;;;;;;;4.06;100.00;101665.31;21005490;28;20221;-59
2021/12/16 21:06:44;;;;;;;10.40;5.57;;;;;;;4.09;100.00;101655.59;21004075;28;20770;-58
2021/12/16 21:56:46;;;;;;;16.90;6.83;;;;;;;3.68;100.00;101685.25;20847705;27;21242;-58
2021/12/16 22:06:52;;;;;;;13.83;6.43;;;;;;;3.65;100.00;101672.09;20858849;28;20245;-59
2021/12/16 22:16:56;;;;;;;19.47;7.07;;;;;;;3.63;100.00;101661.56;20875989;28;20234;-59
2021/12/16 22:27:04;;;;;;;16.37;7.63;;;;;;;3.61;100.00;101673.06;20842210;28;22263;-59
2021/12/16 22:37:14;;;;;;;21.30;8.50;;;;;;;3.60;100.00;101668.66;20842032;28;20219;-61
2021/12/16 22:47:17;;;;;;;17.83;8.17;;;;;;;3.62;100.00;101672.16;20832147;28;20784;-59
2021/12/16 22:57:21;;;;;;;14.83;6.53;;;;;;;3.62;100.00;101674.81;20854525;28;20261;-58
2021/12/16 23:07:25;;;;;;;17.10;7.60;;;;;;;3.59;100.00;101659.00;20805504;28;20239;-59
2021/12/16 23:17:45;;;;;;;15.03;6.47;;;;;;;3.56;100.00;101669.59;20800776;28;20228;-59
2021/12/16 23:27:48;;;;;;;18.87;8.23;;;;;;;3.54;100.00;101647.63;20800810;28;20232;-58
2021/12/16 23:37:59;;;;;;;14.37;6.70;;;;;;;3.55;100.00;101649.38;20794000;28;20223;-57
2021/12/16 23:58:03;;;;;;;17.27;7.80;;;;;;;3.44;100.00;101649.53;20951543;27;20726;-59
